Time;durP1;ratioP1;P1;durP2;ratioP2;P2;SDS_P1;SDS_P2;PMS_P1;PMS_P2;Temp;Humidity;BMP_temperature;BMP_pressure;BME280_temperature;BME280_humidity;BME280_pressure;Samples;Min_cycle;Max_cycle;Signal;HPM_P1;HPM_P2
2021/04/25 00:02:28;;;;;;;3.75;2.35;;;;;;;2.82;68.43;101211.07;1690958;84;21805;-67
2021/04/25 00:05:02;;;;;;;5.35;2.55;;;;;;;2.81;68.60;101213.73;1705173;83;21819;-68
2021/04/25 00:07:34;;;;;;;5.72;2.40;;;;;;;2.79;68.69;101216.40;1759784;80;21204;-67
2021/04/25 00:10:09;;;;;;;4.70;2.27;;;;;;;2.76;68.75;101210.05;1739103;80;21683;-68
2021/04/25 00:12:43;;;;;;;8.55;2.95;;;;;;;2.76;68.87;101216.52;1739969;80;21809;-68
2021/04/25 00:15:25;;;;;;;3.95;2.45;;;;;;;2.75;68.98;101216.11;1735417;81;21853;-67
2021/04/25 00:17:58;;;;;;;4.20;2.27;;;;;;;2.76;68.99;101213.08;1746680;80;21185;-67
2021/04/25 00:20:31;;;;;;;4.87;2.83;;;;;;;2.75;68.96;101217.41;1763119;80;21228;-68
2021/04/25 00:23:04;;;;;;;5.67;2.72;;;;;;;2.75;69.01;101212.23;1746085;80;21837;-67
2021/04/25 00:25:37;;;;;;;5.67;2.87;;;;;;;2.74;69.01;101207.98;1746154;80;21754;-67
2021/04/25 00:28:10;;;;;;;3.33;2.20;;;;;;;2.76;68.99;101216.52;1748674;80;21349;-65
2021/04/25 00:30:43;;;;;;;3.67;2.05;;;;;;;2.76;68.92;101214.38;1716330;82;21915;-67
2021/04/25 00:33:16;;;;;;;4.43;2.30;;;;;;;2.76;68.87;101213.93;1715774;82;21202;-69
2021/04/25 00:35:50;;;;;;;9.48;2.42;;;;;;;2.76;68.75;101211.34;1715190;82;21793;-67
2021/04/25 00:38:23;;;;;;;7.57;2.80;;;;;;;2.74;68.74;101210.57;1678098;84;21901;-68
2021/04/25 00:40:56;;;;;;;4.60;2.52;;;;;;;2.69;68.72;101213.80;1731955;81;21389;-68
2021/04/25 00:43:29;;;;;;;5.15;2.72;;;;;;;2.60;68.93;101205.95;1741938;80;21214;-67
2021/04/25 00:46:03;;;;;;;4.53;2.20;;;;;;;2.56;69.18;101208.72;1740373;80;21812;-67
2021/04/25 00:48:36;;;;;;;4.65;2.65;;;;;;;2.53;69.37;101200.64;1746921;80;21343;-69
2021/04/25 00:51:12;;;;;;;5.83;2.90;;;;;;;2.50;69.48;101209.83;1745147;80;21208;-67
2021/04/25 00:53:45;;;;;;;4.47;2.75;;;;;;;2.48;69.63;101200.02;1725177;82;21321;-67
2021/04/25 00:56:18;;;;;;;3.40;2.62;;;;;;;2.46;69.73;101204.38;1699527;83;21282;-64
2021/04/25 00:58:52;;;;;;;5.70;2.97;;;;;;;2.46;69.82;101207.44;1736601;81;21718;-66
2021/04/25 01:01:26;;;;;;;6.13;2.53;;;;;;;2.43;69.93;101202.38;1681118;84;21627;-67
2021/04/25 01:03:59;;;;;;;5.67;3.02;;;;;;;2.43;69.98;101206.26;1683896;84;21886;-67
2021/04/25 01:06:32;;;;;;;3.50;2.20;;;;;;;2.43;70.00;101196.77;1677101;84;21204;-66
2021/04/25 01:09:06;;;;;;;3.15;1.57;;;;;;;2.43;70.01;101204.52;1683993;84;21990;-67
2021/04/25 01:11:38;;;;;;;;;;;;;;;2.45;70.04;101209.62;1724263;82;21871;-65
2021/04/25 01:14:11;;;;;;;6.17;3.08;;;;;;;2.45;70.06;101210.91;1710559;82;20274;-67
2021/04/25 01:16:45;;;;;;;2.77;1.85;;;;;;;2.42;70.06;101205.86;1742401;80;21267;-67
2021/04/25 01:19:18;;;;;;;4.30;2.37;;;;;;;2.43;70.03;101208.84;1736114;81;21350;-66
2021/04/25 01:21:51;;;;;;;3.90;2.10;;;;;;;2.40;69.94;101205.92;1730654;81;21263;-67
2021/04/25 01:24:24;;;;;;;3.90;1.97;;;;;;;2.39;70.00;101207.30;1736740;80;21325;-67
2021/04/25 01:26:57;;;;;;;3.33;2.07;;;;;;;2.39;70.00;101202.94;1749973;80;21862;-67
2021/04/25 01:29:30;;;;;;;5.22;2.20;;;;;;;2.38;70.03;101209.03;1737089;81;21710;-68
2021/04/25 01:32:03;;;;;;;7.30;2.77;;;;;;;2.39;70.02;101213.28;1760745;80;21877;-68
2021/04/25 01:34:37;;;;;;;4.00;2.05;;;;;;;2.36;69.99;101208.25;1696284;82;21309;-67
2021/04/25 01:37:09;;;;;;;3.17;1.90;;;;;;;2.35;69.99;101202.69;1738349;80;21887;-66
2021/04/25 01:39:42;;;;;;;3.25;1.98;;;;;;;2.35;69.98;101208.30;1723019;82;21281;-66
2021/04/25 01:42:15;;;;;;;5.37;3.10;;;;;;;2.35;70.08;101219.92;1709267;82;21741;-66
2021/04/25 01:44:48;;;;;;;5.55;3.15;;;;;;;2.34;70.12;101220.37;1749836;80;21873;-66
2021/04/25 01:47:21;;;;;;;3.92;2.35;;;;;;;2.36;70.10;101219.03;1737390;81;21302;-67
2021/04/25 01:49:54;;;;;;;4.03;2.27;;;;;;;2.37;70.05;101221.99;1717175;82;21285;-67
2021/04/25 01:52:28;;;;;;;4.30;2.12;;;;;;;2.35;69.92;101221.22;1719856;82;21892;-67
2021/04/25 01:55:01;;;;;;;2.08;1.47;;;;;;;2.33;69.86;101223.87;1750086;80;21798;-68
2021/04/25 01:57:34;;;;;;;4.53;1.92;;;;;;;2.30;69.91;101223.98;1745947;80;21281;-68
2021/04/25 02:00:13;;;;;;;3.90;2.08;;;;;;;2.28;69.91;101226.23;1740874;80;21218;-68
2021/04/25 02:02:46;;;;;;;3.35;2.10;;;;;;;2.26;69.93;101231.92;1704917;82;21194;-67
2021/04/25 02:05:21;;;;;;;9.05;4.70;;;;;;;2.24;70.03;101242.33;1698220;84;21272;-66
2021/04/25 02:07:54;;;;;;;8.87;3.23;;;;;;;2.21;70.15;101240.30;1758319;80;21177;-67
2021/04/25 02:10:27;;;;;;;6.65;2.55;;;;;;;2.21;70.15;101240.30;1745816;81;21822;-67
2021/04/25 02:13:00;;;;;;;5.17;2.10;;;;;;;2.20;69.91;101246.38;1734363;81;21235;-66
2021/04/25 02:15:34;;;;;;;4.58;2.00;;;;;;;2.18;69.93;101245.12;1736813;80;21818;-67
2021/04/25 02:18:07;;;;;;;3.30;1.90;;;;;;;2.19;69.95;101251.14;1709195;82;21777;-66
2021/04/25 02:20:40;;;;;;;4.80;1.67;;;;;;;2.17;69.90;101251.22;1745255;80;21592;-67
2021/04/25 02:23:13;;;;;;;4.03;2.08;;;;;;;2.16;69.91;101253.39;1744378;80;21289;-68
2021/04/25 02:25:46;;;;;;;3.23;1.63;;;;;;;2.17;69.89;101253.80;1744881;81;21325;-67
2021/04/25 02:28:19;;;;;;;4.97;1.80;;;;;;;2.20;69.96;101256.72;1701622;82;21531;-67
2021/04/25 02:30:53;;;;;;;4.70;2.80;;;;;;;2.25;70.11;101256.06;1671989;84;21236;-67
2021/04/25 02:33:25;;;;;;;6.12;2.20;;;;;;;2.34;70.05;101258.31;1733727;81;21790;-66
2021/04/25 02:35:58;;;;;;;6.17;2.83;;;;;;;2.44;69.92;101265.62;1736765;81;21297;-67
2021/04/25 02:38:32;;;;;;;;;;;;;;;2.58;69.73;101263.81;1740502;81;21717;-68
2021/04/25 02:41:04;;;;;;;4.75;2.12;;;;;;;2.74;69.51;101266.16;1711551;82;20403;-66
2021/04/25 02:43:39;;;;;;;4.30;2.50;;;;;;;2.89;69.17;101264.22;1744358;80;21304;-67
2021/04/25 02:46:12;;;;;;;3.77;1.98;;;;;;;3.06;68.65;101267.41;1740678;80;21290;-65
2021/04/25 02:48:45;;;;;;;6.87;2.33;;;;;;;3.21;68.16;101271.95;1698759;83;21186;-69
2021/04/25 02:51:18;;;;;;;6.53;3.52;;;;;;;3.34;67.92;101270.05;1745584;80;21854;-70
2021/04/25 02:53:51;;;;;;;4.60;2.10;;;;;;;3.51;67.60;101279.67;1752848;80;21301;-69
2021/04/25 02:56:25;;;;;;;6.00;2.20;;;;;;;3.69;67.08;101276.75;1706173;82;21329;-70
2021/04/25 02:58:58;;;;;;;4.33;1.60;;;;;;;3.89;66.42;101280.13;1695800;83;21189;-70
2021/04/25 03:01:31;;;;;;;3.17;1.90;;;;;;;4.11;65.79;101286.95;1697322;84;21807;-70
2021/04/25 03:04:05;;;;;;;4.17;2.10;;;;;;;4.33;65.22;101285.03;1669706;84;21877;-69
2021/04/25 03:06:38;;;;;;;6.25;3.17;;;;;;;4.60;64.65;101290.22;1678074;83;21226;-68
2021/04/25 03:09:11;;;;;;;5.70;2.20;;;;;;;4.89;63.87;101287.52;1671741;84;21307;-68
2021/04/25 03:11:44;;;;;;;5.15;2.12;;;;;;;5.03;63.06;101292.41;1687258;83;21852;-69
2021/04/25 03:14:18;;;;;;;3.20;1.80;;;;;;;5.14;62.64;101292.71;1674697;83;21227;-68
2021/04/25 03:16:51;;;;;;;3.57;2.03;;;;;;;5.27;62.09;101298.98;1669883;84;21294;-69
2021/04/25 03:19:24;;;;;;;5.90;2.52;;;;;;;5.37;61.57;101300.17;1667543;84;21291;-70
2021/04/25 03:21:57;;;;;;;4.08;2.45;;;;;;;5.56;60.96;101298.80;1665166;84;21822;-69
2021/04/25 03:24:31;;;;;;;7.92;2.62;;;;;;;5.70;60.21;101297.63;1680594;83;21329;-68
2021/04/25 03:27:05;;;;;;;5.55;3.25;;;;;;;5.84;59.61;101300.80;1675083;83;21190;-65
2021/04/25 03:29:38;;;;;;;6.00;2.20;;;;;;;6.26;59.03;101304.20;1709420;82;21825;-66
2021/04/25 03:32:11;;;;;;;4.47;2.47;;;;;;;6.68;58.02;101308.34;1710071;82;21898;-67
2021/04/25 03:34:44;;;;;;;3.87;2.10;;;;;;;6.92;56.92;101310.86;1708354;82;21809;-67
2021/04/25 03:37:17;;;;;;;3.42;2.12;;;;;;;7.09;56.23;101309.45;1714420;82;21281;-65
2021/04/25 03:39:52;;;;;;;3.20;1.92;;;;;;;7.17;55.36;101298.10;1683288;84;21294;-66
2021/04/25 03:42:25;;;;;;;4.70;1.90;;;;;;;7.34;55.03;101304.47;1722898;82;21330;-67
2021/04/25 03:44:58;;;;;;;5.10;2.43;;;;;;;7.73;53.76;101304.33;1752087;80;21265;-67
2021/04/25 03:47:33;;;;;;;4.70;2.72;;;;;;;8.13;52.88;101310.09;1745609;80;21826;-70
2021/04/25 03:50:07;;;;;;;3.05;2.10;;;;;;;8.55;51.94;101308.73;1741884;80;21703;-69
2021/04/25 03:52:42;;;;;;;5.17;1.92;;;;;;;9.22;50.74;101306.48;1733256;80;21402;-69
2021/04/25 03:55:16;;;;;;;4.40;2.10;;;;;;;10.10;48.96;101308.28;1713896;82;21257;-68
2021/04/25 03:57:50;;;;;;;5.22;2.30;;;;;;;11.06;46.77;101316.11;1689203;84;21300;-68
2021/04/25 04:00:23;;;;;;;5.42;1.95;;;;;;;11.98;44.73;101312.16;1745403;81;21298;-67
2021/04/25 04:02:55;;;;;;;4.53;1.80;;;;;;;12.85;42.77;101313.42;1715912;82;21357;-70
2021/04/25 04:05:29;;;;;;;2.80;1.87;;;;;;;13.65;40.49;101316.40;1754263;80;21297;-70
2021/04/25 04:08:02;;;;;;;3.72;1.87;;;;;;;14.36;38.77;101320.75;1755715;80;21289;-74
2021/04/25 04:10:35;;;;;;;3.27;1.65;;;;;;;15.02;37.33;101323.95;1712261;82;21868;-70
2021/04/25 04:13:08;;;;;;;3.58;1.85;;;;;;;15.66;35.82;101318.94;1735897;81;21347;-67
2021/04/25 04:15:42;;;;;;;4.72;2.08;;;;;;;16.27;34.69;101319.73;1706509;82;21337;-71
2021/04/25 04:18:15;;;;;;;2.10;1.50;;;;;;;16.83;33.51;101323.89;1700342;83;21322;-68
2021/04/25 04:20:48;;;;;;;2.43;1.77;;;;;;;17.43;32.53;101324.87;1746776;80;21163;-73
2021/04/25 04:23:22;;;;;;;2.30;1.80;;;;;;;18.02;31.58;101319.32;1743615;80;21288;-72
2021/04/25 04:25:55;;;;;;;3.62;1.85;;;;;;;18.58;30.49;101325.37;1727095;80;21711;-69
2021/04/25 04:28:28;;;;;;;3.70;1.62;;;;;;;19.03;29.27;101324.95;1736980;80;21284;-74
2021/04/25 04:31:01;;;;;;;3.27;1.80;;;;;;;19.45;28.23;101326.96;1701265;82;21210;-72
2021/04/25 04:33:35;;;;;;;3.15;1.60;;;;;;;19.79;27.59;101322.77;1733956;80;21288;-73
2021/04/25 04:36:09;;;;;;;2.90;1.60;;;;;;;20.16;27.09;101328.28;1742189;80;21368;-73
2021/04/25 04:38:42;;;;;;;2.42;1.70;;;;;;;20.51;26.19;101329.17;1756140;80;21267;-72
2021/04/25 04:41:14;;;;;;;4.00;2.30;;;;;;;20.85;25.71;101329.30;1737365;80;21340;-71
2021/04/25 04:43:47;;;;;;;;;;;;;;;21.20;25.20;101333.56;1710712;82;21198;-69
2021/04/25 04:46:21;;;;;;;4.30;2.12;;;;;;;21.61;24.79;101330.03;1716349;82;20227;-70
2021/04/25 04:48:54;;;;;;;2.75;1.60;;;;;;;21.94;24.32;101334.05;1700466;83;21342;-70
2021/04/25 04:51:27;;;;;;;2.85;1.80;;;;;;;22.35;23.65;101337.55;1728237;82;21273;-74
2021/04/25 04:54:00;;;;;;;2.02;1.45;;;;;;;22.71;22.73;101339.77;1736352;80;21275;-70
2021/04/25 04:56:33;;;;;;;5.17;1.55;;;;;;;23.00;22.12;101342.31;1741264;80;21285;-75
2021/04/25 04:59:08;;;;;;;3.25;1.17;;;;;;;23.24;21.82;101343.77;1700846;82;21218;-71
2021/04/25 05:01:41;;;;;;;1.67;0.98;;;;;;;23.56;21.42;101343.77;1733826;80;21193;-71
2021/04/25 05:04:15;;;;;;;2.65;1.00;;;;;;;23.78;20.83;101348.05;1743471;81;21264;-71
2021/04/25 05:06:48;;;;;;;1.37;1.02;;;;;;;24.00;20.83;101344.28;1734815;81;21271;-71
2021/04/25 05:09:20;;;;;;;;;;;;;;;24.22;20.42;101343.71;1759823;80;21229;-70
2021/04/25 05:11:55;;;;;;;2.02;1.05;;;;;;;24.43;19.79;101343.59;1761432;80;20246;-69
2021/04/25 05:14:28;;;;;;;2.00;1.32;;;;;;;24.47;19.60;101351.53;1738063;81;21309;-69
2021/04/25 05:17:02;;;;;;;1.98;1.25;;;;;;;24.65;19.70;101351.28;1699280;83;21860;-74
2021/04/25 05:19:34;;;;;;;;;;;;;;;24.95;18.87;101347.80;1760809;80;21169;-73
2021/04/25 05:22:07;;;;;;;2.22;1.32;;;;;;;25.16;18.90;101352.98;1752612;80;20592;-72
2021/04/25 05:24:40;;;;;;;2.90;1.10;;;;;;;25.19;18.78;101349.06;1712828;82;21397;-73
2021/04/25 05:27:13;;;;;;;2.58;1.50;;;;;;;25.26;18.23;101345.87;1682716;83;21232;-72
2021/04/25 05:29:47;;;;;;;3.80;1.60;;;;;;;25.43;18.20;101347.92;1736501;81;21789;-73
2021/04/25 05:32:20;;;;;;;3.50;1.12;;;;;;;25.82;18.12;101350.29;1717964;82;21282;-74
2021/04/25 05:34:53;;;;;;;4.10;0.95;;;;;;;26.26;17.38;101347.73;1710248;82;21329;-73
2021/04/25 05:37:26;;;;;;;1.62;1.00;;;;;;;26.36;17.09;101352.15;1744125;81;21339;-72
2021/04/25 05:39:59;;;;;;;3.22;1.07;;;;;;;26.44;16.68;101348.41;1751047;80;21311;-70
2021/04/25 05:42:33;;;;;;;2.98;1.40;;;;;;;26.39;16.80;101354.93;1732568;80;21210;-74
2021/04/25 05:45:07;;;;;;;1.40;0.88;;;;;;;26.47;16.12;101347.95;1745273;80;21212;-72
2021/04/25 05:47:40;;;;;;;1.65;0.90;;;;;;;26.41;16.59;101354.19;1716577;82;21261;-72
2021/04/25 05:50:14;;;;;;;2.00;0.98;;;;;;;26.73;16.51;101355.37;1731610;81;21326;-71
2021/04/25 05:52:47;;;;;;;2.42;1.17;;;;;;;26.92;16.19;101348.25;1739790;81;21369;-71
2021/04/25 05:55:20;;;;;;;2.58;1.20;;;;;;;27.05;16.22;101352.22;1738308;80;21465;-72
2021/04/25 05:57:53;;;;;;;1.87;0.82;;;;;;;27.27;15.76;101348.64;1707349;82;21262;-72
2021/04/25 06:00:26;;;;;;;;;;;;;;;27.56;15.71;101351.23;1744104;80;21212;-72
2021/04/25 06:02:59;;;;;;;2.13;1.17;;;;;;;27.79;14.84;101344.16;1757623;80;20265;-74
2021/04/25 06:05:32;;;;;;;1.47;1.10;;;;;;;27.82;14.98;101346.94;1734446;81;21621;-71
2021/04/25 06:08:05;;;;;;;1.12;0.72;;;;;;;27.96;15.10;101343.06;1750404;80;21296;-71
2021/04/25 06:10:38;;;;;;;1.42;1.07;;;;;;;28.09;14.50;101343.48;1746032;80;21352;-72
2021/04/25 06:13:11;;;;;;;0.80;0.70;;;;;;;28.31;14.21;101337.39;1714623;82;21836;-74
2021/04/25 06:15:44;;;;;;;;;;;;;;;28.43;13.78;101341.48;1745189;81;21333;-72
2021/04/25 06:18:16;;;;;;;1.22;0.70;;;;;;;28.63;13.74;101340.74;1738047;80;20644;-73
2021/04/25 06:20:49;;;;;;;2.90;1.70;;;;;;;28.81;13.47;101334.46;1702300;82;21356;-73
2021/04/25 06:23:22;;;;;;;3.22;2.02;;;;;;;29.06;13.02;101338.66;1689774;83;21781;-73
2021/04/25 06:25:56;;;;;;;;;;;;;;;29.18;12.82;101334.63;1738210;82;21818;-73
2021/04/25 06:28:28;;;;;;;1.85;1.10;;;;;;;29.04;13.04;101336.70;1746798;80;20236;-72
2021/04/25 06:31:02;;;;;;;2.37;1.07;;;;;;;29.05;13.39;101333.48;1717378;82;21332;-72
2021/04/25 06:33:34;;;;;;;;;;;;;;;29.22;12.82;101328.57;1715756;82;21769;-71
2021/04/25 06:36:07;;;;;;;3.02;0.60;;;;;;;29.29;12.42;101338.72;1683763;83;20246;-71
2021/04/25 06:38:41;;;;;;;1.87;0.88;;;;;;;29.31;12.34;101329.86;1681923;83;21299;-72
2021/04/25 06:41:14;;;;;;;0.93;0.60;;;;;;;29.51;12.42;101326.83;1733324;81;22006;-72
2021/04/25 06:43:47;;;;;;;1.77;0.80;;;;;;;29.73;12.15;101321.14;1714552;82;21301;-73
2021/04/25 06:46:21;;;;;;;1.10;0.68;;;;;;;29.88;12.06;101324.19;1708381;83;21876;-72
2021/04/25 06:48:54;;;;;;;0.53;0.50;;;;;;;29.99;11.80;101324.72;1721378;82;21273;-73
2021/04/25 06:51:28;;;;;;;1.92;1.12;;;;;;;30.10;11.59;101322.20;1718389;82;22317;-72
2021/04/25 06:54:00;;;;;;;1.12;0.62;;;;;;;29.96;11.27;101326.53;1743931;80;21212;-71
2021/04/25 06:56:33;;;;;;;1.00;0.55;;;;;;;30.04;11.41;101328.05;1748471;80;21304;-73
2021/04/25 06:59:06;;;;;;;;;;;;;;;30.23;11.31;101317.90;1740204;81;21162;-73
2021/04/25 07:01:39;;;;;;;1.52;0.60;;;;;;;30.35;11.06;101326.82;1740356;80;20217;-71
2021/04/25 07:04:14;;;;;;;0.60;0.60;;;;;;;30.39;11.05;101327.97;1711763;82;21274;-73
2021/04/25 07:06:47;;;;;;;2.08;0.70;;;;;;;30.61;11.13;101321.67;1707295;82;21217;-73
2021/04/25 07:09:21;;;;;;;4.87;1.85;;;;;;;30.81;10.89;101317.70;1714275;82;21875;-74
2021/04/25 07:11:53;;;;;;;;;;;;;;;30.80;10.72;101322.80;1724539;81;21290;-73
2021/04/25 07:14:26;;;;;;;2.45;1.00;;;;;;;30.82;10.46;101324.20;1722602;82;20241;-72
2021/04/25 07:16:59;;;;;;;1.17;0.70;;;;;;;30.70;10.58;101322.61;1676111;84;21299;-73
2021/04/25 07:19:33;;;;;;;0.98;0.78;;;;;;;30.92;10.35;101326.30;1709466;82;21811;-70
2021/04/25 07:22:05;;;;;;;;;;;;;;;31.20;10.52;101327.05;1680420;84;21897;-69
2021/04/25 07:24:38;;;;;;;1.62;0.90;;;;;;;31.59;10.10;101325.78;1679179;83;20175;-69
2021/04/25 07:27:11;;;;;;;1.20;0.82;;;;;;;31.77;10.04;101333.09;1702784;82;21289;-74
2021/04/25 07:29:45;;;;;;;1.10;0.70;;;;;;;32.03;9.95;101339.69;1743459;81;21173;-71
2021/04/25 07:32:18;;;;;;;0.93;0.80;;;;;;;31.38;10.16;101334.64;1718224;82;21300;-74
2021/04/25 07:34:51;;;;;;;1.00;0.80;;;;;;;30.99;10.38;101325.60;1753716;80;21884;-74
2021/04/25 07:37:23;;;;;;;;;;;;;;;31.05;10.26;101332.72;1741999;81;21309;-71
2021/04/25 07:39:57;;;;;;;2.25;1.00;;;;;;;30.93;10.50;101329.30;1717892;82;20252;-72
2021/04/25 07:42:30;;;;;;;2.58;0.75;;;;;;;30.06;10.33;101325.93;1751054;80;21289;-73
2021/04/25 07:45:04;;;;;;;3.58;1.02;;;;;;;28.82;11.01;101327.52;1755742;80;21354;-71
2021/04/25 07:47:37;;;;;;;0.60;0.60;;;;;;;27.83;11.66;101335.94;1762889;80;21309;-72
2021/04/25 07:50:10;;;;;;;;;;;;;;;27.74;12.03;101334.59;1716380;82;21257;-72
2021/04/25 07:52:43;;;;;;;4.05;1.10;;;;;;;27.25;12.55;101333.25;1683451;83;20235;-70
2021/04/25 07:55:17;;;;;;;3.15;1.05;;;;;;;26.22;12.85;101317.51;1671583;84;21716;-69
2021/04/25 07:57:49;;;;;;;2.20;0.80;;;;;;;24.82;13.15;101315.61;1675436;84;21184;-68
2021/04/25 08:00:24;;;;;;;3.75;1.02;;;;;;;23.56;14.46;101322.38;1702991;83;21879;-69
2021/04/25 08:02:57;;;;;;;1.00;0.72;;;;;;;23.04;15.17;101322.23;1691594;83;21263;-74
2021/04/25 08:05:30;;;;;;;1.27;0.93;;;;;;;23.31;15.58;101313.92;1708685;83;21239;-72
2021/04/25 08:08:03;;;;;;;2.22;0.90;;;;;;;23.39;15.20;101322.67;1684450;83;21833;-72
2021/04/25 08:10:37;;;;;;;2.05;0.88;;;;;;;23.80;15.05;101321.42;1696327;83;21247;-74
2021/04/25 08:13:10;;;;;;;1.07;0.80;;;;;;;24.50;14.49;101321.19;1687548;83;21901;-73
2021/04/25 08:15:43;;;;;;;1.25;0.82;;;;;;;24.81;14.15;101318.51;1713068;82;21713;-71
2021/04/25 08:18:16;;;;;;;1.67;0.70;;;;;;;25.11;13.87;101317.09;1718028;82;21305;-71
2021/04/25 08:20:49;;;;;;;1.90;0.80;;;;;;;24.83;13.88;101312.43;1668455;83;21827;-71
2021/04/25 08:23:22;;;;;;;1.62;0.93;;;;;;;24.08;14.25;101322.73;1682521;83;22004;-72
2021/04/25 08:25:55;;;;;;;2.50;0.85;;;;;;;24.05;14.51;101309.20;1707658;82;21842;-72
2021/04/25 08:28:28;;;;;;;2.58;0.98;;;;;;;23.99;14.82;101307.34;1715820;82;21219;-71
2021/04/25 08:31:01;;;;;;;1.62;0.90;;;;;;;23.48;15.13;101296.62;1760446;80;21331;-70
2021/04/25 08:33:34;;;;;;;2.40;1.20;;;;;;;22.59;15.61;101315.35;1738333;80;21171;-68
2021/04/25 08:36:07;;;;;;;1.57;1.05;;;;;;;21.86;15.86;101314.63;1730990;82;21171;-72
2021/04/25 08:38:40;;;;;;;12.23;7.33;;;;;;;21.93;16.10;101284.39;1739847;80;21171;-73
2021/04/25 08:41:16;;;;;;;3.17;1.40;;;;;;;22.37;16.47;101306.17;1751072;80;21270;-73
2021/04/25 08:43:50;;;;;;;3.00;1.10;;;;;;;21.66;16.26;101309.50;1719225;81;21284;-68
2021/04/25 08:46:31;;;;;;;4.15;1.50;;;;;;;21.66;16.26;101309.50;1722199;81;21329;-74
2021/04/25 08:48:59;;;;;;;1.45;0.98;;;;;;;21.44;16.32;101301.89;1715913;81;21331;-70
2021/04/25 08:51:33;;;;;;;0.82;0.72;;;;;;;21.83;16.26;101297.13;1730823;82;21782;-65
2021/04/25 08:54:07;;;;;;;1.22;0.80;;;;;;;22.40;16.18;101296.47;1738211;82;21307;-66
2021/04/25 08:56:40;;;;;;;0.90;0.75;;;;;;;22.39;16.04;101304.14;1744452;80;21711;-67
2021/04/25 08:59:14;;;;;;;1.80;0.70;;;;;;;21.78;15.77;101296.84;1738276;81;21163;-64
2021/04/25 09:01:47;;;;;;;0.70;0.68;;;;;;;21.24;16.52;101303.39;1754125;80;21869;-64
2021/04/25 09:04:21;;;;;;;0.93;0.70;;;;;;;21.47;16.81;101291.68;1748205;80;21411;-67
2021/04/25 09:07:06;;;;;;;0.98;0.82;;;;;;;22.10;16.46;101279.17;1726191;81;21806;-71
2021/04/25 09:09:54;;;;;;;1.35;0.78;;;;;;;22.43;15.05;101273.39;1744795;80;21831;-66
2021/04/25 09:12:34;;;;;;;1.10;0.68;;;;;;;22.17;15.57;101278.42;1742643;81;21178;-63
2021/04/25 09:15:20;;;;;;;0.72;0.60;;;;;;;21.74;15.75;101279.58;1743826;81;21287;-67
2021/04/25 09:18:02;;;;;;;1.15;0.78;;;;;;;21.62;15.71;101278.88;1729774;82;21351;-68
2021/04/25 09:20:47;;;;;;;2.98;0.70;;;;;;;21.38;16.36;101290.11;1729489;82;22932;-66
2021/04/25 09:23:29;;;;;;;3.42;1.02;;;;;;;21.33;16.40;101280.50;1734096;82;21894;-64
2021/04/25 09:26:06;;;;;;;1.22;0.88;;;;;;;21.60;16.38;101286.23;1736035;80;21208;-72
2021/04/25 09:28:41;;;;;;;2.50;0.60;;;;;;;21.83;15.74;101274.47;1764331;80;21861;-68
2021/04/25 09:31:16;;;;;;;1.87;0.70;;;;;;;21.96;15.42;101269.86;1763847;80;21281;-69
2021/04/25 09:33:57;;;;;;;1.65;0.88;;;;;;;21.83;15.80;101269.66;1738049;81;21854;-71
2021/04/25 09:36:32;;;;;;;6.25;1.12;;;;;;;21.63;15.61;101270.72;1740877;80;21199;-70
2021/04/25 09:39:14;;;;;;;1.65;0.90;;;;;;;21.49;16.17;101280.86;1724880;82;21322;-68
2021/04/25 09:41:48;;;;;;;2.58;1.30;;;;;;;21.42;16.45;101274.61;1674632;82;21817;-67
2021/04/25 09:44:33;;;;;;;2.15;1.20;;;;;;;21.03;16.91;101273.92;1718790;81;21232;-62
2021/04/25 09:47:08;;;;;;;1.57;1.10;;;;;;;20.48;16.92;101272.81;1723720;82;21288;-67
2021/04/25 09:49:52;;;;;;;1.50;0.70;;;;;;;19.97;17.24;101274.19;1706030;82;21793;-64
2021/04/25 09:52:38;;;;;;;0.78;0.70;;;;;;;19.43;17.38;101270.53;1683599;84;21299;-69
2021/04/25 09:55:32;;;;;;;2.00;0.85;;;;;;;19.03;17.81;101274.53;1701721;82;21795;-70
2021/04/25 09:58:09;;;;;;;2.00;0.80;;;;;;;18.84;18.26;101271.70;1712228;81;21303;-68
2021/04/25 10:00:53;;;;;;;1.27;0.90;;;;;;;18.67;18.38;101259.41;1740103;79;21296;-67
2021/04/25 10:03:23;;;;;;;1.02;0.78;;;;;;;18.40;19.00;101265.79;1746104;79;21283;-71
2021/04/25 10:06:05;;;;;;;1.15;0.90;;;;;;;18.18;18.96;101261.91;1747997;80;21802;-72
2021/04/25 10:08:39;;;;;;;2.37;0.70;;;;;;;18.14;19.18;101243.36;1746971;80;21267;-67
2021/04/25 10:11:13;;;;;;;0.90;0.80;;;;;;;17.94;18.98;101254.36;1745192;80;21303;-65
2021/04/25 10:13:47;;;;;;;1.80;0.80;;;;;;;17.59;18.97;101253.20;1737393;80;21339;-69
2021/04/25 10:16:21;;;;;;;1.67;0.70;;;;;;;17.37;19.78;101249.23;1746416;80;22129;-68
2021/04/25 10:18:54;;;;;;;0.80;0.70;;;;;;;17.43;19.83;101250.75;1742340;81;21850;-68
2021/04/25 10:21:27;;;;;;;1.57;0.83;;;;;;;17.54;19.86;101243.56;1758286;80;21294;-69
2021/04/25 10:24:00;;;;;;;3.33;1.40;;;;;;;17.61;19.89;101241.46;1718443;82;21253;-67
2021/04/25 10:26:41;;;;;;;1.42;1.10;;;;;;;17.72;20.19;101238.53;1682012;83;21372;-71
2021/04/25 10:29:14;;;;;;;4.05;1.90;;;;;;;17.81;19.89;101241.58;1680260;84;21290;-69
2021/04/25 10:31:47;;;;;;;1.40;1.00;;;;;;;17.72;19.42;101233.23;1696497;82;21233;-67
2021/04/25 10:34:22;;;;;;;2.40;1.22;;;;;;;17.65;19.29;101233.53;1715222;82;21213;-67
2021/04/25 10:36:59;;;;;;;4.60;1.20;;;;;;;17.61;19.20;101233.52;1713893;82;21244;-65
2021/04/25 10:39:50;;;;;;;2.40;1.37;;;;;;;17.55;19.53;101230.68;1721068;81;21799;-68
2021/04/25 10:42:32;;;;;;;1.42;0.88;;;;;;;17.50;19.41;101227.15;1699570;82;21273;-65
2021/04/25 10:45:28;;;;;;;3.55;1.25;;;;;;;17.45;19.42;101222.33;1694343;83;21198;-67
2021/04/25 10:47:47;;;;;;;1.07;0.82;;;;;;;17.39;19.22;101217.64;1686022;83;21331;-66
2021/04/25 10:50:24;;;;;;;2.08;1.15;;;;;;;17.18;19.01;101225.12;1741341;80;21807;-65
2021/04/25 10:53:02;;;;;;;1.80;1.00;;;;;;;17.03;19.37;101219.23;1747580;80;21340;-66
2021/04/25 10:55:35;;;;;;;2.52;1.17;;;;;;;16.96;19.48;101214.20;1731101;81;21824;-68
2021/04/25 10:58:15;;;;;;;2.50;0.93;;;;;;;16.84;19.66;101209.16;1746337;80;21274;-65
2021/04/25 11:00:49;;;;;;;3.42;0.90;;;;;;;16.54;18.90;101212.21;1723858;82;22135;-66
2021/04/25 11:03:26;;;;;;;3.17;1.97;;;;;;;16.16;19.67;101213.78;1719880;82;21361;-67
2021/04/25 11:06:01;;;;;;;1.05;0.85;;;;;;;16.01;20.44;101209.48;1694786;82;21928;-65
2021/04/25 11:08:36;;;;;;;2.37;1.15;;;;;;;16.00;20.41;101207.80;1727014;82;21761;-70
2021/04/25 11:11:13;;;;;;;2.17;1.25;;;;;;;15.97;20.27;101204.64;1743218;80;21937;-69
2021/04/25 11:13:49;;;;;;;0.80;0.70;;;;;;;15.93;20.57;101197.48;1747156;80;21343;-67
2021/04/25 11:16:29;;;;;;;1.70;0.70;;;;;;;15.67;20.32;101201.80;1741541;81;21250;-64
2021/04/25 11:19:10;;;;;;;1.95;1.20;;;;;;;15.38;20.52;101192.64;1705409;82;21380;-70
2021/04/25 11:21:54;;;;;;;1.45;1.00;;;;;;;15.24;20.42;101193.58;1734763;79;21318;-71
2021/04/25 11:24:30;;;;;;;1.30;0.88;;;;;;;15.23;21.21;101189.30;1744270;80;21204;-67
2021/04/25 11:27:03;;;;;;;1.27;0.85;;;;;;;15.29;20.45;101183.44;1739988;80;21189;-68
2021/04/25 11:29:52;;;;;;;1.12;0.80;;;;;;;15.29;20.47;101175.04;1752558;80;21291;-69
2021/04/25 11:32:28;;;;;;;5.12;1.27;;;;;;;15.24;19.94;101170.68;1712971;82;21286;-67
2021/04/25 11:35:04;;;;;;;3.22;1.40;;;;;;;15.16;20.57;101169.75;1730216;81;21380;-65
2021/04/25 11:37:37;;;;;;;3.15;1.00;;;;;;;15.14;21.20;101168.55;1743232;80;21581;-66
2021/04/25 11:40:11;;;;;;;2.20;1.10;;;;;;;15.16;21.43;101165.31;1735111;81;21357;-62
2021/04/25 11:42:47;;;;;;;;;;;;;;;15.22;21.50;101169.16;1742454;81;21403;-65
2021/04/25 11:45:20;;;;;;;;;;;;;;;15.19;20.57;101168.95;1714435;82;20253;-65
2021/04/25 11:48:00;;;;;;;1.62;0.90;;;;;;;15.13;20.81;101174.82;1659446;84;20327;-65
2021/04/25 11:50:36;;;;;;;1.82;1.00;;;;;;;15.04;20.82;101166.45;1704434;82;21392;-60
2021/04/25 11:53:09;;;;;;;4.12;1.87;;;;;;;15.02;21.57;101159.66;1664685;84;21858;-66
2021/04/25 11:55:43;;;;;;;2.37;1.10;;;;;;;15.03;21.56;101161.30;1673968;84;21989;-66
2021/04/25 11:58:20;;;;;;;4.03;1.00;;;;;;;15.05;21.77;101158.03;1734523;81;21294;-69
2021/04/25 12:00:54;;;;;;;1.12;0.82;;;;;;;15.15;22.18;101163.63;1739313;79;21303;-67
2021/04/25 12:03:26;;;;;;;;;;;;;;;15.28;22.03;101160.69;1714532;82;21820;-68
2021/04/25 12:05:59;;;;;;;3.67;1.00;;;;;;;15.34;21.78;101158.30;1706067;82;20174;-69